ЗЦ Санкт-Петербург

ЗЦ Санкт-Петербург

 

Зональный Центр Единой Системы Организации Воздушного Движения (ЗЦ ЕС ОрВД) Санкт-Петербург является структурным подразделением VATRUS.

В зону ответственности центра в сети VATSIM входит воздушное пространство над территориями Ленинградской, Новгородской, Псковской, Вологодской области, Мурманской, Архангельской областями, а так же Республики Карелия и Коми, Ненецкого АО.

Лого ЗЦ Санкт-Петербург
Руководитель региона

Alexey Kaznakov

Контакты

Инструкторы региона
Akhmadjon Saidov (Instructor)
Alexandr Vaganov * (Controller)
Alexey Kaznakov (Instructor)
Alexey Zimin (Instructor)
Nikita Assorov (Instructor)
Stanley Yorke * (Controller)
Timur Samarin * (Senior Student)
Vadim Drachev * (Controller)
Yury Koryagin (Instructor)
Включает в себя

РПИ Архангельск
РПИ Калининград
РПИ Мурманск
РПИ Санкт-Петербург
РПИ Сыктывкар

Диспетчеры региона

Диспетчер Рейтинг Допуски *
Akhmadjon Saidov Instructor ULLL_CTR
Akmal Idrissov Senior Student ULLL_CTR *, ULLL_2_APP, ULLL_1_APP, ULLL_APP
Alexandr Vaganov Controller ULLL_CTR
Alexey Zimin Instructor ULAA_CTR, UMKK_CTR, ULMM_CTR, ULLL_CTR, UUYY_CTR
Ekaterina Romanova Controller ULLL_CTR *, ULLL_CTR, ULLL_CTR
Maxim Demidov Controller ULLL_CTR
Nikita Assorov Instructor ULAA_CTR, UMKK_CTR, ULMM_CTR, UUYY_CTR
Serafim Bedershtet Controller ULLL_CTR
Stanley Yorke Controller ULLL_CTR
Vadim Drachev Controller ULLL_CTR
Yury Koryagin Instructor ULLL_CTR
Aleksandr Manko Senior Student ULLL_2_APP, ULLL_1_APP, ULLL_APP
Aleksandr Mirtov Student ULLI_GND
Alexander Loginov Student 2 ULLI_2_TWR, ULLI_1_TWR, ULLI_3_TWR, ULLI_TWR
Arseny Sitnikov Student 2 ULLI_1_TWR, ULLI_3_TWR, ULLI_TWR, ULLI_2_TWR
Artem Badalov Student 2 ULLL_2_APP*, ULLL_1_APP*, ULLL_APP*
Daniil Dolgikh Student ULLI_GND
Daniil Kayruk Student 2 ULLI_3_TWR, ULLI_TWR, ULLI_2_TWR, ULLI_1_TWR
David Markarian Student 2 ULLI_1_TWR, ULLI_3_TWR, ULLI_TWR, ULLI_2_TWR
Dmitrii Ermakov Student 2 ULLI_2_TWR*, ULLI_1_TWR*, ULLI_3_TWR*, ULLI_TWR*
Johan Nasstrom Student 2 ULLL_2_APP*, ULLL_1_APP*, ULLL_APP*
Nikita Voytko Senior Student ULLL_APP, ULLL_2_APP, ULLL_1_APP
Pavel Romanov Student ULLI_GND
Sasha Klyucharev Student 2 ULLL_1_APP*, ULLL_APP*, ULLL_2_APP*
Sofya Belyaeva Student 2 ULLL_1_APP*, ULLL_APP*, ULLL_2_APP*
Timur Samarin Senior Student ULLL_APP, ULLL_2_APP, ULLL_1_APP
Vitalii Gerasimov Student ULLI_GND
Vitaliy Legkov Student ULLI_GND
Yan Stetsenko Student 2 ULLI_1_TWR, ULLI_3_TWR, ULLI_TWR, ULLI_2_TWR
Yury Pushkaryov Student 2 ULLI_1_TWR, ULLI_3_TWR, ULLI_TWR, ULLI_2_TWR

Аэропорты региона

ICAO Город Название Погода
ULLI Санкт-Петербург Пулково ULLI 161830Z 22005MPS 160V270 9999 -SHRASN SCT009 BKN017CB BKN036 00/M01 Q0988 RESHSN R28L/591035 NOSIG
XLLV
ULAA Архангельск Архангельск ULAA 161830Z 18004MPS 2000 R08/P2000N -FZDZ BR OVC004 M06/M07 Q0978 R08/590537 NOSIG RMK QBB120 QFE733/0977
UMKK Калининград Калининград UMKK 161830Z 23008MPS 3500 -DZ BR OVC006 02/01 Q1007 R24/290095 NOSIG RMK QBB180 OBST OBSC QFE754/1006
ULKK Котлас Котлас
ULMM Мурманск Мурманск ULMM 161830Z 05003MPS 2600 -SHSN BKN011CB M07/M08 Q0966 R13/490332 TEMPO 0700 +SHSN RMK QFE718
ULAM Нарьян-Мар Нарьян-Мар
ULPB Петрозаводск Бесовец ULPB 161800Z AUTO 21008G14MPS 9000 -SN ///016/// M01/M03 Q0983 RMK QFE733/0978
UUYY Сыктывкар Сыктывкар UUYY 161830Z 27002MPS 9999 -SN OVC009 M10/M11 Q0992 R36/490533 NOSIG RMK QFE735/0980
ULWC Череповец Череповец ULWC 161830Z 24004G09MPS 9999 DRSN BKN012 OVC020 M04/M06 Q0993 R21/490237 NOSIG RMK QFE735/0980